createdAt,value
2023-05-14T00:00:59.633Z,11.37
2023-05-14T00:03:27.572Z,11.14
2023-05-14T00:05:56.778Z,11.22
2023-05-14T00:08:24.637Z,11.26
2023-05-14T00:10:52.446Z,11.30
2023-05-14T00:13:20.253Z,11.31
2023-05-14T00:15:48.079Z,11.28
2023-05-14T00:18:15.965Z,11.15
2023-05-14T00:20:44.017Z,11.09
2023-05-14T00:23:13.193Z,11.09
2023-05-14T00:25:41.068Z,11.05
2023-05-14T00:28:08.835Z,11.02
2023-05-14T00:30:36.646Z,10.98
2023-05-14T00:33:05.040Z,10.90
2023-05-14T00:35:35.223Z,10.99
2023-05-14T00:38:03.466Z,10.92
2023-05-14T00:40:32.731Z,10.85
2023-05-14T00:43:00.706Z,10.84
2023-05-14T00:45:29.137Z,10.87
2023-05-14T00:47:57.120Z,10.79
2023-05-14T00:50:25.452Z,10.82
2023-05-14T00:52:53.745Z,10.49
2023-05-14T00:55:23.465Z,10.41
2023-05-14T00:57:55.740Z,10.76
2023-05-14T01:00:23.995Z,10.65
2023-05-14T01:02:51.966Z,10.68
2023-05-14T01:05:20.041Z,10.43
2023-05-14T01:07:58.389Z,10.48
2023-05-14T01:10:31.461Z,10.63
2023-05-14T01:13:05.174Z,10.50
2023-05-14T01:15:35.472Z,10.25
2023-05-14T01:18:05.594Z,10.37
2023-05-14T01:20:33.469Z,10.36
2023-05-14T01:23:02.646Z,10.17
2023-05-14T01:25:31.703Z,10.31
2023-05-14T01:28:07.664Z,10.31
2023-05-14T01:30:37.878Z,10.33
2023-05-14T01:33:09.980Z,10.23
2023-05-14T01:35:38.332Z,10.18
2023-05-14T01:38:10.599Z,10.20
2023-05-14T01:40:38.738Z,9.58
2023-05-14T01:43:07.371Z,10.23
2023-05-14T01:45:37.744Z,10.47
2023-05-14T01:48:06.445Z,10.58
2023-05-14T01:50:34.494Z,10.70
2023-05-14T01:53:02.319Z,10.53
2023-05-14T01:55:31.542Z,10.46
2023-05-14T01:57:59.352Z,10.29
2023-05-14T02:00:28.398Z,10.27
2023-05-14T02:02:56.247Z,10.21
2023-05-14T02:05:24.480Z,10.17
2023-05-14T02:07:53.698Z,10.12
2023-05-14T02:10:22.015Z,10.03
2023-05-14T02:12:52.163Z,10.00
2023-05-14T02:15:20.080Z,9.93
2023-05-14T02:17:47.986Z,9.88
2023-05-14T02:20:15.932Z,9.80
2023-05-14T02:22:45.693Z,9.76
2023-05-14T02:25:13.665Z,9.72
2023-05-14T02:27:41.466Z,9.66
2023-05-14T02:30:12.663Z,9.76
2023-05-14T02:32:40.653Z,9.70
2023-05-14T02:35:09.369Z,9.73
2023-05-14T02:37:38.358Z,9.63
2023-05-14T02:40:07.916Z,9.61
2023-05-14T02:42:35.840Z,9.54
2023-05-14T02:45:03.564Z,9.46
2023-05-14T02:47:33.031Z,9.21
2023-05-14T02:50:00.897Z,9.31
2023-05-14T02:52:28.692Z,9.38
2023-05-14T02:54:56.509Z,9.34
2023-05-14T02:57:24.417Z,9.40
2023-05-14T02:59:52.258Z,9.45
2023-05-14T03:02:20.650Z,9.44
2023-05-14T03:04:50.487Z,9.50
2023-05-14T03:07:18.294Z,9.49
2023-05-14T03:09:46.197Z,9.43
2023-05-14T03:12:14.442Z,9.33
2023-05-14T03:14:42.287Z,9.34
2023-05-14T03:17:10.401Z,9.21
2023-05-14T03:19:38.264Z,9.28
2023-05-14T03:22:09.914Z,9.15
2023-05-14T03:24:39.972Z,9.24
2023-05-14T03:27:07.866Z,9.15
2023-05-14T03:29:35.822Z,9.25
2023-05-14T03:32:03.643Z,9.15
2023-05-14T03:34:31.458Z,9.04
2023-05-14T03:36:59.991Z,9.39
2023-05-14T03:39:29.144Z,9.40
2023-05-14T03:41:59.015Z,9.32
2023-05-14T03:44:26.918Z,9.24
2023-05-14T03:46:54.687Z,9.16
2023-05-14T03:49:22.813Z,9.59
2023-05-14T03:51:51.377Z,9.49
2023-05-14T03:54:19.328Z,9.41
2023-05-14T03:56:48.552Z,9.51
2023-05-14T03:59:16.297Z,9.53
2023-05-14T04:01:44.699Z,9.53
2023-05-14T04:04:12.658Z,9.57
2023-05-14T04:06:40.840Z,9.56
2023-05-14T04:09:10.651Z,9.61
2023-05-14T04:11:38.566Z,9.66
2023-05-14T04:14:08.280Z,10.01
2023-05-14T04:16:36.194Z,10.72
2023-05-14T04:19:04.887Z,11.36
2023-05-14T04:21:32.820Z,11.91
2023-05-14T04:24:00.900Z,12.15
2023-05-14T04:26:28.668Z,12.66
2023-05-14T04:28:56.576Z,13.18
2023-05-14T04:31:26.045Z,13.57
2023-05-14T04:33:53.861Z,13.42
2023-05-14T04:36:21.640Z,12.23
2023-05-14T04:38:49.399Z,13.30
2023-05-14T04:41:17.215Z,13.58
2023-05-14T04:43:44.897Z,13.65
2023-05-14T04:46:13.894Z,13.69
2023-05-14T04:48:43.361Z,13.60
2023-05-14T04:51:11.243Z,12.43
2023-05-14T04:53:39.055Z,11.56
2023-05-14T04:56:07.321Z,10.93
2023-05-14T04:58:35.403Z,11.37
2023-05-14T05:01:05.866Z,11.68
2023-05-14T05:03:33.924Z,11.73
2023-05-14T05:06:03.403Z,11.45
2023-05-14T05:08:32.142Z,11.51
2023-05-14T05:10:59.940Z,12.07
2023-05-14T05:13:27.683Z,11.78
2023-05-14T05:15:55.513Z,11.61
2023-05-14T05:18:23.316Z,11.49
2023-05-14T05:20:51.560Z,11.49
2023-05-14T05:23:20.768Z,11.72
2023-05-14T05:25:48.548Z,11.34
2023-05-14T05:28:16.310Z,11.49
2023-05-14T05:30:45.164Z,11.96
2023-05-14T05:33:13.489Z,12.15
2023-05-14T05:35:41.796Z,12.33
2023-05-14T05:38:09.655Z,12.14
2023-05-14T05:40:38.958Z,12.56
2023-05-14T05:43:06.799Z,12.63
2023-05-14T05:45:34.759Z,12.67
2023-05-14T05:48:03.041Z,12.58
2023-05-14T05:50:32.687Z,12.61
2023-05-14T05:53:00.513Z,12.57
2023-05-14T05:55:28.272Z,12.64
2023-05-14T05:57:57.626Z,12.99
2023-05-14T06:00:25.757Z,13.09
2023-05-14T06:02:53.808Z,12.89
2023-05-14T06:05:21.865Z,13.08
2023-05-14T06:07:49.773Z,13.59
2023-05-14T06:10:17.666Z,13.86
2023-05-14T06:12:45.563Z,13.84
2023-05-14T06:15:15.568Z,13.86
2023-05-14T06:17:43.362Z,14.12
2023-05-14T06:20:12.114Z,13.93
2023-05-14T06:22:39.976Z,14.32
2023-05-14T06:25:08.927Z,14.37
2023-05-14T06:27:36.759Z,14.70
2023-05-14T06:30:04.959Z,14.84
2023-05-14T06:32:34.167Z,14.14
2023-05-14T06:35:01.996Z,15.21
2023-05-14T06:37:29.779Z,15.15
2023-05-14T06:39:58.055Z,15.35
2023-05-14T06:42:26.404Z,15.56
2023-05-14T06:44:54.542Z,15.62
2023-05-14T06:47:22.432Z,15.72
2023-05-14T06:49:51.704Z,15.66
2023-05-14T06:52:19.602Z,15.88
2023-05-14T06:54:47.437Z,15.87
2023-05-14T06:57:15.253Z,16.03
2023-05-14T06:59:43.152Z,16.59
2023-05-14T07:02:11.392Z,16.71
2023-05-14T07:04:39.243Z,16.97
2023-05-14T07:07:10.513Z,16.66
2023-05-14T07:09:38.321Z,16.83
2023-05-14T07:12:07.222Z,17.12
2023-05-14T07:14:35.430Z,17.23
2023-05-14T07:17:03.258Z,16.91
2023-05-14T07:19:31.194Z,17.04
2023-05-14T07:21:58.991Z,16.75
2023-05-14T07:24:28.289Z,17.38
2023-05-14T07:26:57.239Z,17.49
2023-05-14T07:29:25.729Z,17.76
2023-05-14T07:31:53.630Z,17.90
2023-05-14T07:34:21.592Z,17.59
2023-05-14T07:36:49.725Z,17.50
2023-05-14T07:39:17.585Z,17.98
2023-05-14T07:41:46.865Z,18.66
2023-05-14T07:44:14.698Z,19.00
2023-05-14T07:46:42.982Z,18.40
2023-05-14T07:49:10.799Z,18.20
2023-05-14T07:51:38.706Z,18.42
2023-05-14T07:54:06.615Z,18.44
2023-05-14T07:56:34.677Z,18.86
2023-05-14T07:59:03.877Z,18.95
2023-05-14T08:01:32.363Z,18.79
2023-05-14T08:04:00.316Z,19.34
2023-05-14T08:06:29.573Z,19.59
2023-05-14T08:08:57.368Z,18.70
2023-05-14T08:11:26.181Z,19.71
2023-05-14T08:13:54.029Z,18.72
2023-05-14T08:16:23.490Z,18.84
2023-05-14T08:18:51.523Z,19.58
2023-05-14T08:21:19.354Z,19.93
2023-05-14T08:23:47.225Z,20.06
2023-05-14T08:26:15.079Z,19.93
2023-05-14T08:28:43.086Z,19.52
2023-05-14T08:31:11.348Z,19.77
2023-05-14T08:33:40.859Z,19.84
2023-05-14T08:36:09.266Z,20.01
2023-05-14T08:38:37.074Z,20.20
2023-05-14T08:41:07.430Z,20.52
2023-05-14T08:43:43.595Z,20.63
2023-05-14T08:46:15.154Z,20.84
2023-05-14T08:48:48.370Z,20.10
2023-05-14T08:51:16.310Z,20.54
2023-05-14T08:53:44.083Z,20.62
2023-05-14T08:56:13.041Z,20.72
2023-05-14T08:58:40.888Z,20.44
2023-05-14T09:01:08.720Z,20.43
2023-05-14T09:03:38.059Z,20.71
2023-05-14T09:06:08.621Z,20.54
2023-05-14T09:08:38.703Z,20.74
2023-05-14T09:11:06.783Z,20.68
2023-05-14T09:13:37.527Z,20.40
2023-05-14T09:16:05.794Z,20.29
2023-05-14T09:18:33.710Z,20.40
2023-05-14T09:21:02.673Z,19.95
2023-05-14T09:23:34.625Z,19.81
2023-05-14T09:26:05.870Z,19.81
2023-05-14T09:28:33.805Z,19.59
2023-05-14T09:31:03.074Z,19.79
2023-05-14T09:33:31.057Z,19.98
2023-05-14T09:36:02.571Z,19.94
2023-05-14T09:38:30.896Z,20.24
2023-05-14T09:41:01.506Z,20.67
2023-05-14T09:43:29.413Z,20.38
2023-05-14T09:45:57.201Z,20.14
2023-05-14T09:48:25.121Z,20.48
2023-05-14T09:50:53.149Z,20.66
2023-05-14T09:53:21.085Z,20.07
2023-05-14T09:55:49.319Z,20.34
2023-05-14T09:58:18.635Z,21.13
2023-05-14T10:00:47.662Z,19.79
2023-05-14T10:03:19.588Z,19.51
2023-05-14T10:05:50.981Z,19.67
2023-05-14T10:08:23.181Z,19.95
2023-05-14T10:10:52.434Z,20.22
2023-05-14T10:13:24.756Z,20.33
2023-05-14T10:15:58.635Z,21.05
2023-05-14T10:18:29.946Z,20.99
2023-05-14T10:21:03.780Z,20.55
2023-05-14T10:23:31.637Z,20.07
2023-05-14T10:26:00.525Z,19.93
2023-05-14T10:28:29.973Z,19.67
2023-05-14T10:30:57.864Z,19.64
2023-05-14T10:33:25.870Z,19.69
2023-05-14T10:35:58.399Z,19.75
2023-05-14T10:38:28.330Z,20.12
2023-05-14T10:41:02.396Z,20.74
2023-05-14T10:43:32.751Z,20.80
2023-05-14T10:46:01.461Z,20.46
2023-05-14T10:48:29.795Z,20.70
2023-05-14T10:50:58.647Z,20.86
2023-05-14T10:53:34.087Z,20.27
2023-05-14T10:56:05.821Z,20.47
2023-05-14T10:58:37.273Z,20.11
2023-05-14T11:01:06.566Z,20.65
2023-05-14T11:03:40.698Z,20.85
2023-05-14T11:06:09.531Z,19.99
2023-05-14T11:08:37.812Z,20.30
2023-05-14T11:11:06.812Z,20.96
2023-05-14T11:13:36.518Z,21.23
2023-05-14T11:16:21.128Z,21.33
2023-05-14T11:18:55.786Z,20.51
2023-05-14T11:21:23.819Z,20.67
2023-05-14T11:23:53.185Z,20.63
2023-05-14T11:26:21.755Z,19.73
2023-05-14T11:28:51.676Z,19.95
2023-05-14T11:31:20.222Z,20.09
2023-05-14T11:33:48.362Z,19.97
2023-05-14T11:36:16.893Z,20.08
2023-05-14T11:38:50.668Z,20.36
2023-05-14T11:41:21.148Z,20.75
2023-05-14T11:43:49.685Z,20.38
2023-05-14T11:46:19.767Z,19.98
2023-05-14T11:48:48.680Z,19.81
2023-05-14T11:51:16.610Z,20.37
2023-05-14T11:53:46.495Z,21.04
2023-05-14T11:56:14.975Z,21.52
2023-05-14T11:58:48.818Z,21.62
2023-05-14T12:01:17.863Z,22.22
2023-05-14T12:03:47.379Z,22.59
2023-05-14T12:06:15.456Z,22.79
2023-05-14T12:08:43.697Z,22.75
2023-05-14T12:11:11.984Z,22.65
2023-05-14T12:13:40.750Z,21.90
2023-05-14T12:16:08.660Z,22.15
2023-05-14T12:18:36.615Z,21.87
2023-05-14T12:21:08.516Z,20.66
2023-05-14T12:23:36.597Z,20.30
2023-05-14T12:26:06.172Z,20.35
2023-05-14T12:28:37.578Z,20.38
2023-05-14T12:31:06.198Z,20.13
2023-05-14T12:33:34.159Z,20.42
2023-05-14T12:36:13.512Z,20.46
2023-05-14T12:38:50.556Z,20.77
2023-05-14T12:41:18.882Z,20.99
2023-05-14T12:43:49.106Z,21.20
2023-05-14T12:46:17.104Z,21.11
2023-05-14T12:48:44.789Z,20.71
2023-05-14T12:51:12.384Z,20.46
2023-05-14T12:53:40.064Z,20.62
2023-05-14T12:56:09.708Z,20.98
2023-05-14T12:58:37.336Z,21.15
2023-05-14T13:01:05.785Z,20.72
2023-05-14T13:03:33.701Z,20.43
2023-05-14T13:06:01.424Z,20.32
2023-05-14T13:08:29.091Z,20.37
2023-05-14T13:10:57.458Z,20.30
2023-05-14T13:13:26.476Z,20.67
2023-05-14T13:15:54.399Z,21.17
2023-05-14T13:18:22.231Z,21.27
2023-05-14T13:20:49.873Z,21.30
2023-05-14T13:23:17.531Z,21.07
2023-05-14T13:25:45.780Z,20.98
2023-05-14T13:28:15.065Z,20.58
2023-05-14T13:31:03.909Z,20.54
2023-05-14T13:33:31.898Z,20.52
2023-05-14T13:35:59.519Z,20.37
2023-05-14T13:38:27.240Z,20.58
2023-05-14T13:40:57.274Z,20.43
2023-05-14T13:43:24.917Z,20.21
2023-05-14T13:45:54.086Z,20.40
2023-05-14T13:48:21.737Z,20.09
2023-05-14T13:50:50.102Z,19.89
2023-05-14T13:53:17.768Z,20.23
2023-05-14T13:55:46.697Z,20.43
2023-05-14T13:58:16.770Z,20.40
2023-05-14T14:00:44.403Z,20.25
2023-05-14T14:03:13.360Z,20.31
2023-05-14T14:05:41.055Z,20.48
2023-05-14T14:08:22.559Z,20.72
2023-05-14T14:10:51.495Z,20.80
2023-05-14T14:13:19.281Z,20.97
2023-05-14T14:15:46.918Z,20.45
2023-05-14T14:18:16.191Z,20.41
2023-05-14T14:20:43.795Z,20.88
2023-05-14T14:23:11.396Z,21.26
2023-05-14T14:25:39.073Z,21.35
2023-05-14T14:28:06.691Z,21.52
2023-05-14T14:30:34.664Z,21.68
2023-05-14T14:33:02.386Z,21.48
2023-05-14T14:35:33.331Z,21.28
2023-05-14T14:38:00.907Z,21.24
2023-05-14T14:40:29.707Z,21.57
2023-05-14T14:42:57.372Z,21.85
2023-05-14T14:45:25.295Z,22.00
2023-05-14T14:47:53.281Z,22.11
2023-05-14T14:50:20.921Z,21.97
2023-05-14T14:52:49.955Z,21.90
2023-05-14T14:55:17.545Z,21.76
2023-05-14T14:57:45.192Z,21.66
2023-05-14T15:00:13.711Z,21.68
2023-05-14T15:02:42.969Z,21.85
2023-05-14T15:05:10.775Z,21.91
2023-05-14T15:07:38.411Z,21.93
2023-05-14T15:10:08.109Z,21.46
2023-05-14T15:12:35.708Z,21.32
2023-05-14T15:15:03.359Z,21.44
2023-05-14T15:17:31.023Z,21.41
2023-05-14T15:19:58.708Z,21.36
2023-05-14T15:22:26.311Z,21.30
2023-05-14T15:24:53.911Z,21.38
2023-05-14T15:27:22.880Z,21.72
2023-05-14T15:29:50.556Z,21.76
2023-05-14T15:32:18.303Z,21.66
2023-05-14T15:34:45.920Z,21.51
2023-05-14T15:37:13.536Z,21.75
2023-05-14T15:39:41.161Z,21.65
2023-05-14T15:42:08.886Z,21.68
2023-05-14T15:44:39.042Z,21.86
2023-05-14T15:47:07.116Z,22.05
2023-05-14T15:49:34.792Z,21.90
2023-05-14T15:52:02.856Z,21.82
2023-05-14T15:54:30.865Z,22.08
2023-05-14T15:56:58.456Z,22.38
2023-05-14T15:59:26.130Z,22.46
2023-05-14T16:01:55.293Z,22.47
2023-05-14T16:04:22.998Z,22.17
2023-05-14T16:06:51.909Z,22.34
2023-05-14T16:09:19.647Z,22.27
2023-05-14T16:11:47.229Z,21.92
2023-05-14T16:14:14.849Z,21.62
2023-05-14T16:16:42.511Z,21.06
2023-05-14T16:19:11.765Z,20.68
2023-05-14T16:21:39.514Z,20.63
2023-05-14T16:24:07.681Z,20.26
2023-05-14T16:26:35.292Z,20.20
2023-05-14T16:29:02.923Z,20.09
2023-05-14T16:31:31.468Z,20.24
2023-05-14T16:33:59.278Z,19.46
2023-05-14T16:36:28.361Z,19.13
2023-05-14T16:39:07.341Z,19.05
2023-05-14T16:41:35.567Z,19.36
2023-05-14T16:44:03.326Z,19.21
2023-05-14T16:46:32.053Z,19.46
2023-05-14T16:48:59.997Z,19.61
2023-05-14T16:51:29.085Z,19.44
2023-05-14T16:53:56.731Z,19.27
2023-05-14T16:56:24.317Z,19.40
2023-05-14T16:58:51.991Z,19.20
2023-05-14T17:01:19.777Z,19.18
2023-05-14T17:03:47.457Z,19.22
2023-05-14T17:06:15.126Z,19.12
2023-05-14T17:08:44.148Z,19.12
2023-05-14T17:11:11.778Z,19.05
2023-05-14T17:13:39.488Z,18.93
2023-05-14T17:16:07.589Z,18.87
2023-05-14T17:18:35.380Z,18.88
2023-05-14T17:21:04.745Z,18.82
2023-05-14T17:23:32.326Z,18.78
2023-05-14T17:26:01.432Z,18.85
2023-05-14T17:28:29.957Z,18.87
2023-05-14T17:30:57.633Z,18.78
2023-05-14T17:33:25.420Z,18.70
2023-05-14T17:35:53.084Z,18.71
2023-05-14T17:38:20.721Z,18.41
2023-05-14T17:40:48.772Z,18.29
2023-05-14T17:43:17.875Z,18.05
2023-05-14T17:45:53.753Z,18.33
2023-05-14T17:48:22.094Z,18.16
2023-05-14T17:50:49.815Z,18.62
2023-05-14T17:53:17.482Z,18.89
2023-05-14T17:55:45.185Z,19.06
2023-05-14T17:58:13.444Z,19.12
2023-05-14T18:00:42.688Z,18.95
2023-05-14T18:03:10.506Z,18.98
2023-05-14T18:05:38.360Z,18.90
2023-05-14T18:08:06.303Z,18.98
2023-05-14T18:10:33.929Z,19.02
2023-05-14T18:13:01.691Z,18.96
2023-05-14T18:15:31.493Z,18.87
2023-05-14T18:18:00.802Z,18.33
2023-05-14T18:20:28.590Z,18.48
2023-05-14T18:22:56.248Z,18.45
2023-05-14T18:25:24.128Z,18.45
2023-05-14T18:27:51.959Z,18.07
2023-05-14T18:30:19.716Z,17.88
2023-05-14T18:32:47.485Z,17.53
2023-05-14T18:35:16.560Z,17.50
2023-05-14T18:37:44.245Z,17.53
2023-05-14T18:40:16.238Z,17.31
2023-05-14T18:43:06.188Z,17.44
2023-05-14T18:45:34.076Z,17.39
2023-05-14T18:48:01.821Z,17.13
2023-05-14T18:50:29.472Z,17.04
2023-05-14T18:52:57.171Z,16.93
2023-05-14T18:55:25.178Z,16.91
2023-05-14T18:57:53.125Z,16.84
2023-05-14T19:00:22.339Z,16.80
2023-05-14T19:02:50.144Z,16.68
2023-05-14T19:05:17.822Z,16.62
2023-05-14T19:07:47.944Z,16.37
2023-05-14T19:10:15.907Z,16.37
2023-05-14T19:12:43.580Z,16.39
2023-05-14T19:15:12.086Z,16.27
2023-05-14T19:17:41.964Z,16.21
2023-05-14T19:20:10.478Z,16.13
2023-05-14T19:22:38.241Z,15.55
2023-05-14T19:25:07.869Z,16.05
2023-05-14T19:27:37.742Z,16.08
2023-05-14T19:30:06.213Z,16.01
2023-05-14T19:32:36.036Z,16.03
2023-05-14T19:35:05.980Z,15.94
2023-05-14T19:37:35.168Z,15.86
2023-05-14T19:40:03.647Z,15.75
2023-05-14T19:42:31.795Z,15.62
2023-05-14T19:44:59.428Z,15.56
2023-05-14T19:47:28.450Z,15.51
2023-05-14T19:49:56.427Z,15.44
2023-05-14T19:52:25.639Z,15.41
2023-05-14T19:54:53.256Z,15.28
2023-05-14T19:57:21.366Z,15.30
2023-05-14T19:59:49.274Z,15.15
2023-05-14T20:02:18.577Z,15.24
2023-05-14T20:04:47.401Z,15.17
2023-05-14T20:07:15.739Z,15.07
2023-05-14T20:09:44.898Z,15.03
2023-05-14T20:12:13.260Z,14.94
2023-05-14T20:14:41.522Z,14.81
2023-05-14T20:17:09.349Z,14.77
2023-05-14T20:19:37.442Z,14.61
2023-05-14T20:22:05.369Z,14.58
2023-05-14T20:24:33.546Z,14.54
2023-05-14T20:27:03.052Z,14.56
2023-05-14T20:29:30.614Z,14.56
2023-05-14T20:31:58.276Z,14.51
2023-05-14T20:34:26.056Z,14.42
2023-05-14T20:36:53.706Z,14.37
2023-05-14T20:39:21.362Z,14.34
2023-05-14T20:41:49.252Z,14.30
2023-05-14T20:44:19.929Z,14.22
2023-05-14T20:46:48.498Z,14.21
2023-05-14T20:49:16.318Z,14.22
2023-05-14T20:51:43.881Z,14.27
2023-05-14T20:54:11.619Z,14.28
2023-05-14T20:56:39.315Z,14.09
2023-05-14T20:59:07.049Z,14.12
2023-05-14T21:01:36.099Z,14.07
2023-05-14T21:04:03.862Z,13.98
2023-05-14T21:06:31.915Z,13.93
2023-05-14T21:08:59.502Z,13.81
2023-05-14T21:11:27.140Z,13.71
2023-05-14T21:13:54.787Z,13.74
2023-05-14T21:16:22.582Z,13.63
2023-05-14T21:18:51.665Z,13.51
2023-05-14T21:21:19.418Z,13.44
2023-05-14T21:23:47.120Z,13.38
2023-05-14T21:26:14.733Z,13.43
2023-05-14T21:28:42.394Z,13.44
2023-05-14T21:31:10.563Z,13.43
2023-05-14T21:33:38.273Z,13.33
2023-05-14T21:36:08.065Z,13.46
2023-05-14T21:38:36.076Z,13.47
2023-05-14T21:41:03.677Z,13.53
2023-05-14T21:43:31.251Z,13.38
2023-05-14T21:45:58.994Z,13.34
2023-05-14T21:48:26.686Z,13.24
2023-05-14T21:50:54.392Z,13.18
2023-05-14T21:53:23.596Z,13.15
2023-05-14T21:55:51.282Z,13.15
2023-05-14T21:58:19.101Z,13.01
2023-05-14T22:00:46.764Z,12.96
2023-05-14T22:03:14.472Z,12.93
2023-05-14T22:05:42.193Z,12.81
2023-05-14T22:08:10.061Z,12.79
2023-05-14T22:10:39.032Z,12.75
2023-05-14T22:13:06.701Z,12.70
2023-05-14T22:15:34.348Z,12.63
2023-05-14T22:18:03.079Z,12.66
2023-05-14T22:20:30.840Z,12.54
2023-05-14T22:22:58.468Z,12.56
2023-05-14T22:25:26.427Z,12.54
2023-05-14T22:27:55.729Z,12.65
2023-05-14T22:30:23.427Z,12.55
2023-05-14T22:32:51.087Z,12.54
2023-05-14T22:35:18.892Z,12.47
2023-05-14T22:37:46.461Z,12.39
2023-05-14T22:40:14.531Z,12.30
2023-05-14T22:42:42.186Z,12.28
2023-05-14T22:45:11.679Z,12.23
2023-05-14T22:47:39.387Z,12.20
2023-05-14T22:50:11.376Z,12.16
2023-05-14T22:52:39.362Z,12.12
2023-05-14T22:55:07.770Z,12.06
2023-05-14T22:57:35.731Z,12.10
2023-05-14T23:00:04.145Z,12.02
2023-05-14T23:02:33.134Z,12.01
2023-05-14T23:05:00.929Z,12.02
2023-05-14T23:07:28.572Z,11.99
2023-05-14T23:09:56.167Z,11.96
2023-05-14T23:12:23.757Z,11.94
2023-05-14T23:14:51.426Z,11.87
2023-05-14T23:17:19.050Z,11.83
2023-05-14T23:19:48.072Z,11.71
2023-05-14T23:22:15.748Z,11.70
2023-05-14T23:24:43.522Z,11.66
2023-05-14T23:27:11.856Z,11.68
2023-05-14T23:29:39.626Z,11.63
2023-05-14T23:32:08.255Z,11.61
2023-05-14T23:34:36.054Z,11.60
2023-05-14T23:37:05.325Z,11.64
2023-05-14T23:39:33.035Z,11.60
2023-05-14T23:42:00.635Z,11.62
2023-05-14T23:44:28.340Z,11.67
2023-05-14T23:46:56.024Z,11.61
2023-05-14T23:49:23.716Z,11.55
2023-05-14T23:51:51.597Z,11.35
2023-05-14T23:54:21.110Z,11.29
2023-05-14T23:56:48.833Z,11.32
2023-05-14T23:59:16.753Z,11.28
